Time;durP1;ratioP1;P1;durP2;ratioP2;P2;SDS_P1;SDS_P2;PMS_P1;PMS_P2;Temp;Humidity;BMP_temperature;BMP_pressure;BME280_temperature;BME280_humidity;BME280_pressure;Samples;Min_cycle;Max_cycle;Signal;HPM_P1;HPM_P2
2021/12/18 00:02:14;;;;;;;39.47;21.08;;;;;;;5.56;100.00;98290.31;4960543;28;20080;-47
2021/12/18 00:04:42;;;;;;;41.97;21.10;;;;;;;5.71;100.00;98286.16;4957668;28;20085;-51
2021/12/18 00:07:12;;;;;;;41.72;21.15;;;;;;;5.24;100.00;98286.53;4961928;28;20086;-51
2021/12/18 00:09:41;;;;;;;46.05;21.90;;;;;;;5.28;100.00;98279.38;4985018;28;20138;-49
2021/12/18 00:12:10;;;;;;;41.60;21.88;;;;;;;5.10;100.00;98287.13;4986395;28;20574;-49
2021/12/18 00:14:39;;;;;;;33.67;18.40;;;;;;;4.69;100.00;98291.47;4982957;28;20528;-51
2021/12/18 00:17:07;;;;;;;41.95;22.15;;;;;;;4.99;100.00;98292.81;4981882;28;20517;-50
2021/12/18 00:19:36;;;;;;;40.20;21.67;;;;;;;5.45;100.00;98301.28;4988510;28;20058;-54
2021/12/18 00:22:05;;;;;;;40.70;21.65;;;;;;;5.08;100.00;98303.78;4983110;28;20078;-50
2021/12/18 00:24:35;;;;;;;40.65;20.45;;;;;;;5.12;100.00;98297.50;4984950;28;20401;-53
2021/12/18 00:27:04;;;;;;;42.50;21.85;;;;;;;5.10;100.00;98302.81;4985557;28;20070;-50
2021/12/18 00:29:32;;;;;;;36.42;17.08;;;;;;;4.55;100.00;98294.66;4975566;28;20066;-50
2021/12/18 00:32:01;;;;;;;42.65;21.17;;;;;;;4.85;100.00;98296.91;4961061;28;20643;-52
2021/12/18 00:34:29;;;;;;;36.83;18.70;;;;;;;5.23;100.00;98287.44;4963500;28;20549;-51
2021/12/18 00:36:58;;;;;;;36.30;18.83;;;;;;;5.30;100.00;98301.09;4962717;28;20093;-50
2021/12/18 00:39:29;;;;;;;38.42;18.90;;;;;;;5.11;100.00;98303.66;4980003;28;20449;-50
2021/12/18 00:42:09;;;;;;;36.97;18.42;;;;;;;4.82;100.00;98308.34;4977843;28;20480;-52
2021/12/18 00:44:37;;;;;;;40.00;20.77;;;;;;;5.07;100.00;98300.31;4981537;28;20065;-53
2021/12/18 00:47:06;;;;;;;36.25;19.60;;;;;;;5.45;100.00;98301.28;4981478;28;20480;-49
2021/12/18 00:49:35;;;;;;;40.58;20.13;;;;;;;5.46;100.00;98299.50;4980080;28;20066;-50
2021/12/18 00:52:04;;;;;;;40.25;20.90;;;;;;;5.52;100.00;98298.41;4984893;28;20097;-54
2021/12/18 00:54:34;;;;;;;41.83;22.00;;;;;;;5.44;100.00;98303.97;4964308;28;21668;-49
2021/12/18 00:57:05;;;;;;;41.85;22.67;;;;;;;5.14;100.00;98304.38;4964619;28;20063;-52
2021/12/18 00:59:34;;;;;;;45.00;22.75;;;;;;;5.47;100.00;98303.81;4976156;28;20073;-48
2021/12/18 01:02:03;;;;;;;40.50;21.63;;;;;;;5.60;100.00;98311.97;4972128;28;20070;-48
2021/12/18 01:04:32;;;;;;;43.38;22.90;;;;;;;5.36;100.00;98316.53;4968618;28;20480;-53
2021/12/18 01:07:00;;;;;;;46.13;22.92;;;;;;;5.17;100.00;98312.09;4983397;28;20465;-49
2021/12/18 01:09:44;;;;;;;43.58;21.98;;;;;;;5.15;100.00;98320.91;4981854;28;20074;-52
2021/12/18 01:12:14;;;;;;;40.67;20.20;;;;;;;4.93;100.00;98327.03;4967805;28;20077;-52
2021/12/18 01:14:56;;;;;;;40.83;21.33;;;;;;;5.23;100.00;98337.16;4960364;28;20066;-52
2021/12/18 01:22:56;;;;;;;41.17;21.52;;;;;;;5.07;100.00;98325.63;4974583;28;20064;-50
2021/12/18 01:25:25;;;;;;;41.63;22.75;;;;;;;5.13;100.00;98328.00;4964320;28;20097;-50
2021/12/18 01:27:55;;;;;;;40.92;21.50;;;;;;;5.43;100.00;98334.50;4966725;28;20082;-49
2021/12/18 01:30:23;;;;;;;38.97;21.83;;;;;;;5.41;100.00;98325.88;4982029;28;20067;-50
2021/12/18 01:32:52;;;;;;;40.67;20.98;;;;;;;5.72;100.00;98319.28;4968802;28;20490;-52
2021/12/18 01:35:21;;;;;;;42.78;22.13;;;;;;;5.64;100.00;98329.25;4960319;28;20075;-48
2021/12/18 01:37:50;;;;;;;42.92;21.70;;;;;;;5.51;100.00;98342.03;4962587;28;20070;-49
2021/12/18 01:40:21;;;;;;;46.25;25.25;;;;;;;5.65;100.00;98326.56;4962958;28;20480;-47
2021/12/18 01:45:47;;;;;;;46.50;23.65;;;;;;;5.16;100.00;98317.38;4960805;28;19946;-50
2021/12/18 01:51:23;;;;;;;37.53;20.25;;;;;;;5.67;100.00;98306.38;4979601;28;20054;-48
2021/12/18 01:53:55;;;;;;;35.10;19.52;;;;;;;5.57;100.00;98285.94;4968115;28;20050;-54
2021/12/18 01:56:25;;;;;;;34.22;19.05;;;;;;;5.45;100.00;98282.97;4970642;28;20054;-49
2021/12/18 01:58:54;;;;;;;33.47;19.17;;;;;;;5.56;100.00;98285.09;4973070;28;20120;-48
2021/12/18 02:01:24;;;;;;;35.67;19.17;;;;;;;5.37;100.00;98287.69;4956171;28;20110;-49
2021/12/18 02:03:52;;;;;;;34.85;19.17;;;;;;;5.28;100.00;98293.31;4963713;28;20098;-49
2021/12/18 02:06:22;;;;;;;37.35;20.58;;;;;;;5.46;100.00;98302.97;4975927;28;20065;-50
2021/12/18 02:08:51;;;;;;;39.20;21.52;;;;;;;5.54;100.00;98301.78;4984497;28;20736;-52
2021/12/18 02:11:28;;;;;;;38.25;21.02;;;;;;;5.33;100.00;98309.66;4981238;28;20065;-52
2021/12/18 02:14:20;;;;;;;39.70;20.98;;;;;;;5.94;100.00;98298.25;4978039;28;20096;-49
2021/12/18 02:19:56;;;;;;;38.17;20.08;;;;;;;5.76;100.00;98305.16;4980428;28;20080;-50
2021/12/18 02:22:27;;;;;;;40.08;21.95;;;;;;;5.61;100.00;98306.69;4981696;28;20101;-50
2021/12/18 02:24:56;;;;;;;39.45;22.05;;;;;;;5.18;100.00;98310.31;4983819;28;20488;-48
2021/12/18 02:27:25;;;;;;;40.90;23.20;;;;;;;5.87;100.00;98292.41;4978352;28;20044;-48
2021/12/18 02:29:54;;;;;;;42.42;22.45;;;;;;;6.04;100.00;98291.66;4978092;28;20529;-49
2021/12/18 02:32:22;;;;;;;45.78;22.98;;;;;;;6.09;100.00;98291.44;4979715;28;20062;-50
2021/12/18 02:34:58;;;;;;;48.15;25.45;;;;;;;5.47;100.00;98286.38;4972759;28;20086;-49
2021/12/18 02:37:32;;;;;;;50.72;24.98;;;;;;;5.19;100.00;98283.25;4958435;28;20071;-49
2021/12/18 02:42:52;;;;;;;48.22;24.58;;;;;;;5.18;100.00;98289.41;4945431;28;20509;-53
2021/12/18 02:45:21;;;;;;;54.08;25.98;;;;;;;5.10;100.00;98279.28;4976680;28;20521;-47
2021/12/18 02:47:50;;;;;;;54.05;25.10;;;;;;;4.84;100.00;98271.69;4982262;28;20544;-51
2021/12/18 02:50:18;;;;;;;52.40;24.63;;;;;;;4.48;100.00;98267.91;4969355;28;20078;-51
2021/12/18 02:52:48;;;;;;;48.63;24.13;;;;;;;5.25;100.00;98256.81;4961586;28;20070;-50
2021/12/18 02:55:16;;;;;;;45.73;23.33;;;;;;;5.08;100.00;98257.56;4960301;28;20082;-48
2021/12/18 02:57:45;;;;;;;47.67;22.70;;;;;;;4.80;100.00;98255.28;4963431;28;21058;-49
2021/12/18 03:00:14;;;;;;;50.03;24.05;;;;;;;5.52;100.00;98256.53;4981570;28;20450;-46
2021/12/18 03:02:45;;;;;;;47.47;23.85;;;;;;;5.26;100.00;98255.91;4970818;28;20088;-49
2021/12/18 03:05:20;;;;;;;;;;;;;;;5.82;100.00;98242.03;4959270;28;20078;-48
2021/12/18 03:07:56;;;;;;;44.30;22.05;;;;;;;5.72;100.00;98246.00;4963958;28;19962;-54
2021/12/18 03:19:21;;;;;;;35.42;18.75;;;;;;;6.39;100.00;98248.06;4960399;28;20441;-50
2021/12/18 03:24:35;;;;;;;36.95;19.35;;;;;;;6.32;100.00;98237.97;4983376;28;20062;-51
2021/12/18 03:27:07;;;;;;;36.20;19.00;;;;;;;6.26;100.00;98246.94;4964044;28;20074;-50
2021/12/18 03:29:35;;;;;;;28.17;14.93;;;;;;;6.58;100.00;98249.81;4966334;28;20093;-49
2021/12/18 03:32:04;;;;;;;23.48;13.60;;;;;;;6.59;100.00;98247.09;4970150;28;20077;-50
2021/12/18 03:34:32;;;;;;;17.63;11.20;;;;;;;5.80;100.00;98256.13;4983585;28;20070;-49
2021/12/18 03:37:02;;;;;;;18.70;11.25;;;;;;;6.06;100.00;98254.94;4986825;28;20082;-48
2021/12/18 03:39:30;;;;;;;20.35;12.63;;;;;;;5.40;100.00;98252.66;4981357;28;20457;-52
2021/12/18 03:42:00;;;;;;;19.10;12.25;;;;;;;5.44;100.00;98254.25;4984062;28;20070;-48
2021/12/18 03:44:28;;;;;;;20.33;12.17;;;;;;;5.59;100.00;98245.69;4980758;28;20092;-51
2021/12/18 03:46:57;;;;;;;22.02;12.55;;;;;;;5.21;100.00;98242.19;4981275;28;20505;-51
2021/12/18 03:49:25;;;;;;;22.30;12.80;;;;;;;5.00;100.00;98257.88;4980851;28;20092;-50
2021/12/18 03:51:54;;;;;;;18.25;10.93;;;;;;;4.63;100.00;98255.13;4986496;28;20090;-52
2021/12/18 03:54:23;;;;;;;22.30;13.07;;;;;;;4.27;100.00;98260.94;4987791;28;20076;-50
2021/12/18 03:56:51;;;;;;;23.92;13.63;;;;;;;4.38;100.00;98253.53;4985838;28;20070;-49
2021/12/18 03:59:21;;;;;;;24.23;14.13;;;;;;;4.13;100.00;98253.66;4981710;28;20065;-50
2021/12/18 04:01:50;;;;;;;26.30;14.48;;;;;;;4.35;100.00;98253.66;4985786;28;20082;-47
2021/12/18 04:04:18;;;;;;;22.38;13.77;;;;;;;4.49;100.00;98253.09;4984103;28;20084;-51
2021/12/18 04:06:47;;;;;;;26.10;15.13;;;;;;;4.60;100.00;98252.63;4985633;28;20174;-49
2021/12/18 04:09:16;;;;;;;26.05;15.60;;;;;;;4.34;100.00;98258.94;4986264;28;20069;-50
2021/12/18 04:11:44;;;;;;;24.73;14.57;;;;;;;4.23;100.00;98254.13;4978791;28;20473;-49
2021/12/18 04:14:14;;;;;;;25.67;14.95;;;;;;;4.39;100.00;98257.81;4984496;28;20066;-50
2021/12/18 04:16:43;;;;;;;19.02;11.27;;;;;;;4.62;100.00;98256.91;4979894;28;20082;-51
2021/12/18 04:19:12;;;;;;;20.60;10.73;;;;;;;4.62;100.00;98262.13;4983101;28;20697;-50
2021/12/18 04:21:40;;;;;;;20.70;12.38;;;;;;;4.92;100.00;98262.63;4983672;28;20501;-50
2021/12/18 04:24:09;;;;;;;16.38;9.15;;;;;;;4.97;100.00;98257.19;4988423;28;20121;-48
2021/12/18 04:26:37;;;;;;;17.67;11.32;;;;;;;4.89;100.00;98262.75;4970477;28;20097;-46
2021/12/18 04:29:06;;;;;;;18.05;10.98;;;;;;;5.40;100.00;98269.25;4962373;28;20058;-48
2021/12/18 04:31:36;;;;;;;18.13;11.25;;;;;;;5.41;100.00;98264.84;4960620;28;20078;-52
2021/12/18 04:34:06;;;;;;;18.42;11.60;;;;;;;5.71;100.00;98270.47;4968209;28;20180;-50
2021/12/18 04:36:35;;;;;;;20.30;11.73;;;;;;;5.13;100.00;98278.31;4958473;28;21565;-50
2021/12/18 04:39:04;;;;;;;22.30;13.27;;;;;;;5.52;100.00;98265.22;4962736;28;20430;-50
2021/12/18 04:41:40;;;;;;;24.15;14.07;;;;;;;5.83;100.00;98256.81;4958941;28;20063;-47
2021/12/18 04:44:08;;;;;;;26.60;14.52;;;;;;;6.06;100.00;98261.03;4969268;28;20124;-50
2021/12/18 04:46:37;;;;;;;25.70;14.77;;;;;;;5.61;100.00;98266.56;4981806;28;20074;-49
2021/12/18 04:49:07;;;;;;;22.60;13.07;;;;;;;5.61;100.00;98267.44;4984573;28;20082;-48
2021/12/18 04:51:35;;;;;;;19.83;12.20;;;;;;;4.82;100.00;98273.50;4982746;28;20404;-48
2021/12/18 04:54:04;;;;;;;16.65;11.00;;;;;;;4.68;100.00;98279.28;4966671;28;20493;-48
2021/12/18 04:56:32;;;;;;;16.27;10.88;;;;;;;4.72;100.00;98273.06;4958601;28;20086;-49
2021/12/18 04:59:01;;;;;;;15.52;10.23;;;;;;;4.90;100.00;98280.13;4960799;28;20071;-50
2021/12/18 05:01:29;;;;;;;17.85;11.75;;;;;;;4.90;100.00;98280.13;4960545;28;20074;-51
2021/12/18 05:03:58;;;;;;;17.83;12.05;;;;;;;4.47;100.00;98273.19;4960854;28;20529;-49
2021/12/18 05:06:29;;;;;;;19.08;12.13;;;;;;;3.98;100.00;98275.97;4980265;28;20054;-51
2021/12/18 05:08:58;;;;;;;17.90;11.23;;;;;;;4.41;100.00;98278.69;4962626;28;20469;-48
2021/12/18 05:11:26;;;;;;;18.08;11.88;;;;;;;4.88;100.00;98275.84;4957833;28;20081;-50
2021/12/18 05:13:55;;;;;;;18.45;11.20;;;;;;;5.02;100.00;98286.56;4962578;28;20070;-51
2021/12/18 05:16:24;;;;;;;20.02;12.73;;;;;;;4.38;100.00;98277.03;4962518;28;20089;-53
2021/12/18 05:18:52;;;;;;;19.80;12.40;;;;;;;4.69;100.00;98284.47;4985126;28;20078;-47
2021/12/18 05:21:21;;;;;;;21.60;13.45;;;;;;;5.40;100.00;98266.63;4982347;28;20076;-48
2021/12/18 05:23:51;;;;;;;20.23;13.82;;;;;;;5.26;100.00;98270.75;4982027;28;20684;-50
2021/12/18 05:26:19;;;;;;;20.80;12.85;;;;;;;4.60;100.00;98271.78;4971435;28;20066;-54
2021/12/18 05:28:48;;;;;;;18.95;12.57;;;;;;;5.24;100.00;98271.66;4960881;28;20050;-51
2021/12/18 05:31:17;;;;;;;17.10;11.20;;;;;;;4.59;100.00;98271.84;4960525;28;20078;-50
2021/12/18 05:33:46;;;;;;;18.75;11.57;;;;;;;4.57;100.00;98282.34;4964742;28;20108;-51
2021/12/18 05:36:32;;;;;;;16.67;10.60;;;;;;;4.24;100.00;98280.19;4961202;28;20105;-47
2021/12/18 05:39:03;;;;;;;16.40;11.02;;;;;;;4.09;100.00;98274.72;4961864;28;20077;-52
2021/12/18 05:41:31;;;;;;;17.08;10.25;;;;;;;4.60;100.00;98284.00;4962892;28;20062;-46
2021/12/18 05:44:00;;;;;;;17.30;10.10;;;;;;;3.99;100.00;98282.03;4964928;28;20080;-50
2021/12/18 05:46:29;;;;;;;16.05;10.27;;;;;;;4.64;100.00;98281.19;4985035;28;20077;-49
2021/12/18 05:48:58;;;;;;;17.13;10.45;;;;;;;5.19;100.00;98284.09;4979962;28;20081;-47
2021/12/18 05:51:26;;;;;;;14.10;9.85;;;;;;;5.63;100.00;98278.66;4978835;28;20059;-49
2021/12/18 05:53:55;;;;;;;15.50;10.13;;;;;;;5.53;100.00;98276.53;4964919;28;20070;-48
2021/12/18 05:56:25;;;;;;;16.52;9.60;;;;;;;5.77;100.00;98283.28;4959058;28;20073;-50
2021/12/18 05:58:53;;;;;;;14.38;9.65;;;;;;;5.89;100.00;98277.50;4960878;28;20058;-52
2021/12/18 06:01:22;;;;;;;16.33;10.52;;;;;;;5.46;100.00;98287.25;4958849;28;20462;-52
2021/12/18 06:03:51;;;;;;;15.50;10.60;;;;;;;5.15;100.00;98295.59;4963393;28;20082;-49
2021/12/18 06:06:21;;;;;;;18.15;11.57;;;;;;;4.83;100.00;98299.59;4963063;28;20078;-50
2021/12/18 06:08:49;;;;;;;18.42;10.98;;;;;;;4.07;100.00;98292.22;4957907;28;20529;-50
2021/12/18 06:11:21;;;;;;;16.98;10.85;;;;;;;3.85;100.00;98300.00;4958379;28;20069;-50
2021/12/18 06:13:52;;;;;;;14.43;9.88;;;;;;;4.61;100.00;98298.75;4957374;28;20078;-53
2021/12/18 06:16:22;;;;;;;17.17;11.05;;;;;;;4.61;100.00;98299.63;4955211;28;20086;-51
2021/12/18 06:18:52;;;;;;;14.88;10.00;;;;;;;4.89;100.00;98296.72;4964322;28;20319;-50
2021/12/18 06:21:22;;;;;;;14.50;10.68;;;;;;;5.37;100.00;98289.47;4960678;28;20693;-49
2021/12/18 06:23:52;;;;;;;18.02;11.15;;;;;;;5.60;100.00;98288.41;4981606;28;20077;-47
2021/12/18 06:26:23;;;;;;;17.73;11.10;;;;;;;5.55;100.00;98286.03;4989313;28;20081;-49
2021/12/18 06:28:53;;;;;;;17.30;11.47;;;;;;;5.72;100.00;98273.03;4978989;28;20066;-51
2021/12/18 06:31:37;;;;;;;17.45;10.65;;;;;;;5.75;100.00;98279.00;4960515;28;20481;-50
2021/12/18 06:34:06;;;;;;;18.75;10.73;;;;;;;5.55;100.00;98278.16;4968803;28;20093;-48
2021/12/18 06:36:35;;;;;;;16.20;10.07;;;;;;;5.43;100.00;98279.53;4979760;28;21549;-47
2021/12/18 06:39:03;;;;;;;15.20;10.55;;;;;;;5.41;100.00;98276.16;4982586;28;20109;-50
2021/12/18 06:41:32;;;;;;;15.88;10.63;;;;;;;5.45;100.00;98289.97;4981255;28;20084;-48
2021/12/18 06:44:02;;;;;;;15.00;10.88;;;;;;;5.60;100.00;98283.19;4985749;28;20073;-53
2021/12/18 06:46:30;;;;;;;15.88;10.60;;;;;;;5.45;100.00;98282.97;4977686;28;20066;-47
2021/12/18 06:48:58;;;;;;;17.75;10.75;;;;;;;5.51;100.00;98286.25;4964007;28;20533;-47
2021/12/18 06:51:27;;;;;;;15.90;10.85;;;;;;;5.12;100.00;98277.41;4963989;28;20081;-46
2021/12/18 06:53:55;;;;;;;16.90;11.65;;;;;;;4.51;100.00;98278.25;4960368;28;20087;-47
2021/12/18 06:56:24;;;;;;;17.88;11.60;;;;;;;5.19;100.00;98281.47;4964214;28;20077;-53
2021/12/18 06:58:52;;;;;;;37.53;29.05;;;;;;;5.19;100.00;98281.47;4960407;28;20110;-48
2021/12/18 07:01:22;;;;;;;18.95;12.80;;;;;;;5.20;100.00;98284.97;4963045;28;20082;-51
2021/12/18 07:03:51;;;;;;;14.80;9.90;;;;;;;4.73;100.00;98285.19;4960829;28;20082;-51
2021/12/18 07:06:19;;;;;;;16.73;11.40;;;;;;;5.41;100.00;98277.94;4955162;28;20071;-52
2021/12/18 07:08:48;;;;;;;15.60;10.90;;;;;;;5.29;100.00;98266.22;4964579;28;20070;-51
2021/12/18 07:11:16;;;;;;;15.43;11.50;;;;;;;5.65;100.00;98262.91;4964457;28;20058;-49
2021/12/18 07:13:45;;;;;;;17.58;13.23;;;;;;;5.64;100.00;98264.69;4965904;28;20077;-48
2021/12/18 07:16:13;;;;;;;19.58;12.80;;;;;;;5.89;100.00;98266.16;4983216;28;20078;-53
2021/12/18 07:18:43;;;;;;;19.50;12.30;;;;;;;5.51;100.00;98265.31;4964878;28;20089;-51
2021/12/18 07:21:12;;;;;;;18.93;12.67;;;;;;;5.72;100.00;98270.41;4985901;28;20077;-52
2021/12/18 07:23:41;;;;;;;18.30;12.18;;;;;;;5.54;100.00;98268.63;4993915;28;20485;-49
2021/12/18 07:26:12;;;;;;;22.17;12.90;;;;;;;5.09;100.00;98274.94;4974036;28;20066;-53
2021/12/18 07:28:41;;;;;;;21.65;14.70;;;;;;;5.54;100.00;98270.38;4971203;28;20066;-50
2021/12/18 07:31:09;;;;;;;17.95;12.38;;;;;;;5.53;100.00;98279.16;4980970;28;20085;-51
2021/12/18 07:33:41;;;;;;;20.20;13.38;;;;;;;5.47;100.00;98275.91;4986219;28;20533;-47
2021/12/18 07:36:11;;;;;;;22.75;14.60;;;;;;;5.49;100.00;98283.66;4997045;28;20066;-49
2021/12/18 07:38:39;;;;;;;20.58;13.60;;;;;;;4.61;100.00;98278.72;4967248;28;20529;-49
2021/12/18 07:41:08;;;;;;;20.10;13.20;;;;;;;4.30;100.00;98279.09;4963690;28;20059;-49
2021/12/18 07:43:39;;;;;;;21.08;13.68;;;;;;;4.43;100.00;98282.91;4971101;28;20081;-50
2021/12/18 07:46:08;;;;;;;21.15;13.23;;;;;;;4.10;100.00;98284.25;4985693;28;20093;-53
2021/12/18 07:48:36;;;;;;;19.92;13.30;;;;;;;3.89;100.00;98284.19;4964457;28;21531;-52
2021/12/18 07:51:05;;;;;;;20.02;12.93;;;;;;;3.62;100.00;98285.22;4960440;28;20066;-50
2021/12/18 07:53:35;;;;;;;18.85;12.35;;;;;;;4.08;100.00;98283.47;4973814;28;20062;-53
2021/12/18 07:56:04;;;;;;;21.40;12.32;;;;;;;4.68;100.00;98282.78;4972260;28;20074;-51
2021/12/18 07:58:32;;;;;;;18.65;11.88;;;;;;;4.05;100.00;98285.28;4961431;28;20062;-50
2021/12/18 08:01:01;;;;;;;19.83;12.57;;;;;;;3.95;100.00;98281.31;4963167;28;20089;-53
2021/12/18 08:03:30;;;;;;;22.13;13.60;;;;;;;4.21;100.00;98285.53;4966631;28;20070;-55
2021/12/18 08:05:59;;;;;;;22.15;13.02;;;;;;;4.69;100.00;98289.69;4962116;28;20081;-49
2021/12/18 08:08:27;;;;;;;20.55;12.70;;;;;;;4.16;100.00;98297.91;4981656;28;20085;-51
2021/12/18 08:10:57;;;;;;;21.60;12.93;;;;;;;4.31;100.00;98283.41;4990001;28;20058;-50
2021/12/18 08:13:26;;;;;;;20.23;12.95;;;;;;;3.91;100.00;98290.16;4981209;28;20097;-53
2021/12/18 08:15:54;;;;;;;23.10;12.30;;;;;;;4.48;100.00;98298.41;4965720;28;20098;-50
2021/12/18 08:18:23;;;;;;;21.85;12.50;;;;;;;4.19;100.00;98305.63;4965046;28;20073;-49
2021/12/18 08:20:51;;;;;;;18.85;10.95;;;;;;;4.89;100.00;98299.34;4975358;28;20074;-47
2021/12/18 08:23:20;;;;;;;19.52;11.50;;;;;;;5.46;100.00;98289.88;4989316;28;20081;-54
2021/12/18 08:25:48;;;;;;;19.55;12.10;;;;;;;4.83;100.00;98302.19;4983177;28;20046;-53
2021/12/18 08:28:18;;;;;;;18.65;11.68;;;;;;;4.82;100.00;98297.03;4979374;28;20108;-51
2021/12/18 08:30:47;;;;;;;20.80;12.05;;;;;;;4.87;100.00;98300.31;4962364;28;20107;-51
2021/12/18 08:33:16;;;;;;;24.95;14.60;;;;;;;5.62;100.00;98284.81;4957993;28;20066;-55
2021/12/18 08:35:44;;;;;;;23.02;14.02;;;;;;;5.51;100.00;98294.09;4966445;28;20077;-47
2021/12/18 08:38:13;;;;;;;21.77;13.10;;;;;;;5.81;100.00;98284.81;4973155;28;20085;-50
2021/12/18 08:40:42;;;;;;;22.10;13.27;;;;;;;5.45;100.00;98289.97;4986504;28;20113;-51
2021/12/18 08:43:11;;;;;;;20.92;13.18;;;;;;;5.32;100.00;98288.78;4986065;28;20109;-50
2021/12/18 08:45:41;;;;;;;21.35;13.13;;;;;;;5.99;100.00;98291.03;4998854;28;20723;-52
2021/12/18 08:48:09;;;;;;;22.88;14.50;;;;;;;5.57;100.00;98294.63;4983052;28;20066;-52
2021/12/18 08:50:38;;;;;;;23.70;13.57;;;;;;;4.89;100.00;98303.72;4970294;28;20447;-51
2021/12/18 08:53:07;;;;;;;26.15;15.00;;;;;;;5.10;100.00;98297.56;4971797;28;20081;-53
2021/12/18 08:55:35;;;;;;;26.40;15.15;;;;;;;4.14;100.00;98298.91;4980715;28;20062;-47
2021/12/18 08:58:04;;;;;;;24.85;14.77;;;;;;;4.21;100.00;98287.31;4999399;28;20074;-49
2021/12/18 09:00:33;;;;;;;24.52;15.40;;;;;;;4.33;100.00;98291.19;4960971;28;20097;-47
2021/12/18 09:03:04;;;;;;;25.15;14.73;;;;;;;4.65;100.00;98284.66;4962006;28;20054;-47
2021/12/18 09:05:34;;;;;;;26.50;15.48;;;;;;;4.19;100.00;98289.94;4961795;28;20073;-49
2021/12/18 09:08:02;;;;;;;24.67;14.97;;;;;;;4.94;100.00;98291.28;4961635;28;20077;-51
2021/12/18 09:10:31;;;;;;;24.48;14.07;;;;;;;4.61;100.00;98289.19;4964373;28;20501;-52
2021/12/18 09:12:59;;;;;;;26.25;14.50;;;;;;;4.33;100.00;98296.41;4963541;28;20490;-49
2021/12/18 09:15:28;;;;;;;24.75;14.25;;;;;;;4.74;100.00;98298.19;4984261;28;20146;-51
2021/12/18 09:17:57;;;;;;;24.92;14.70;;;;;;;5.48;100.00;98280.22;4966030;28;20054;-47
2021/12/18 09:20:27;;;;;;;24.33;15.05;;;;;;;4.60;100.00;98291.84;4961145;28;20075;-47
2021/12/18 09:22:58;;;;;;;28.85;14.63;;;;;;;4.73;100.00;98300.88;4971447;28;20062;-46
2021/12/18 09:25:26;;;;;;;29.23;15.98;;;;;;;5.74;100.00;98286.03;4979832;28;20088;-48
2021/12/18 09:27:56;;;;;;;26.13;15.45;;;;;;;5.58;100.00;98285.03;4962941;28;20090;-48
2021/12/18 09:30:25;;;;;;;29.75;17.42;;;;;;;5.56;100.00;98287.72;4978471;28;20074;-49
2021/12/18 09:32:53;;;;;;;28.45;15.85;;;;;;;4.83;100.00;98290.91;4966612;28;22126;-46
2021/12/18 09:35:22;;;;;;;25.23;14.77;;;;;;;5.23;100.00;98295.28;4959949;28;20073;-48
2021/12/18 09:37:51;;;;;;;24.48;14.77;;;;;;;5.15;100.00;98295.59;4960560;28;20258;-46
2021/12/18 09:40:20;;;;;;;25.27;15.23;;;;;;;5.42;100.00;98284.88;4963957;28;20090;-50
2021/12/18 09:42:49;;;;;;;26.50;15.02;;;;;;;5.61;100.00;98280.53;4964084;28;20097;-49
2021/12/18 09:45:18;;;;;;;28.85;16.30;;;;;;;5.10;100.00;98288.88;4965169;28;20069;-48
2021/12/18 09:47:47;;;;;;;26.27;15.75;;;;;;;5.42;100.00;98279.63;4977610;28;20077;-47
2021/12/18 09:50:17;;;;;;;24.83;14.93;;;;;;;4.94;100.00;98288.69;4981256;28;20076;-48
2021/12/18 09:52:46;;;;;;;23.92;13.63;;;;;;;5.45;100.00;98282.97;4988632;28;20061;-51
2021/12/18 09:55:17;;;;;;;24.90;14.30;;;;;;;5.30;100.00;98277.53;4978792;28;20082;-51
2021/12/18 09:57:46;;;;;;;22.15;13.43;;;;;;;5.77;100.00;98274.56;4959885;28;20094;-48
2021/12/18 10:00:16;;;;;;;22.77;13.55;;;;;;;4.76;100.00;98283.31;4981919;28;20070;-52
2021/12/18 10:02:45;;;;;;;23.80;14.57;;;;;;;4.97;100.00;98268.47;4977500;28;20070;-48
2021/12/18 10:05:23;;;;;;;21.83;13.32;;;;;;;5.50;100.00;98271.44;4983362;28;20074;-52
2021/12/18 10:08:15;;;;;;;23.85;15.75;;;;;;;5.71;100.00;98250.41;4981764;28;20070;-50
2021/12/18 10:11:03;;;;;;;26.13;15.93;;;;;;;5.60;100.00;98257.00;4977488;28;20455;-49
2021/12/18 10:13:51;;;;;;;24.25;13.63;;;;;;;4.49;100.00;98259.16;4987718;28;20074;-48
2021/12/18 10:16:20;;;;;;;23.60;13.90;;;;;;;5.34;100.00;98259.03;4985387;28;20579;-51
2021/12/18 10:18:50;;;;;;;28.85;16.65;;;;;;;4.46;100.00;98251.44;4981210;28;20087;-47
2021/12/18 10:21:22;;;;;;;24.63;15.57;;;;;;;5.46;100.00;98239.31;4980387;28;20074;-50
2021/12/18 10:23:52;;;;;;;24.88;14.68;;;;;;;5.54;100.00;98241.59;4983187;28;20065;-45
2021/12/18 10:26:35;;;;;;;28.65;15.50;;;;;;;5.18;100.00;98239.69;4983921;28;20070;-46
2021/12/18 10:29:05;;;;;;;31.40;17.83;;;;;;;4.61;100.00;98246.50;4976397;28;20059;-48
2021/12/18 10:31:41;;;;;;;24.70;15.57;;;;;;;5.51;100.00;98237.38;4958995;28;20074;-48
2021/12/18 10:34:18;;;;;;;26.05;15.55;;;;;;;4.71;100.00;98247.81;4956382;28;20458;-50
2021/12/18 10:37:09;;;;;;;29.08;16.25;;;;;;;4.45;100.00;98243.69;4982751;28;20090;-49
2021/12/18 10:39:38;;;;;;;27.00;16.08;;;;;;;5.45;100.00;98243.72;4978188;28;20261;-49
2021/12/18 10:42:18;;;;;;;27.50;16.10;;;;;;;5.76;100.00;98234.47;4958857;28;20059;-48
2021/12/18 10:45:05;;;;;;;26.85;16.63;;;;;;;4.77;100.00;98247.56;4978101;28;20066;-49
2021/12/18 10:47:48;;;;;;;25.33;14.88;;;;;;;4.69;100.00;98245.28;4978256;28;20066;-46
2021/12/18 10:50:19;;;;;;;29.08;17.73;;;;;;;4.44;100.00;98253.28;4980776;28;20057;-48
2021/12/18 10:52:53;;;;;;;24.77;15.18;;;;;;;5.02;100.00;98243.91;4973544;28;20075;-50
2021/12/18 10:55:30;;;;;;;24.02;14.32;;;;;;;4.76;100.00;98241.50;4959092;28;20513;-53
2021/12/18 10:58:02;;;;;;;24.70;15.13;;;;;;;5.20;100.00;98237.88;4979671;28;20643;-51
2021/12/18 11:00:42;;;;;;;28.77;15.38;;;;;;;5.16;100.00;98241.53;4957494;28;20073;-52
2021/12/18 11:03:14;;;;;;;;;;;;;;;5.38;100.00;98228.38;4975243;28;20066;-53
2021/12/18 11:05:43;;;;;;;24.13;13.80;;;;;;;5.72;100.00;98222.44;4981146;28;19957;-46
2021/12/18 11:08:13;;;;;;;24.67;14.55;;;;;;;5.99;100.00;98217.72;4976973;28;20062;-47
2021/12/18 11:10:53;;;;;;;23.75;14.73;;;;;;;6.35;100.00;98219.47;4980763;28;20074;-48
2021/12/18 11:13:45;;;;;;;25.02;14.30;;;;;;;6.48;100.00;98217.94;4987229;28;20512;-46
2021/12/18 11:16:14;;;;;;;25.50;14.45;;;;;;;6.37;100.00;98215.88;4981323;28;20081;-45
2021/12/18 11:18:42;;;;;;;26.17;15.57;;;;;;;6.72;100.00;98208.00;4983844;28;20101;-52
2021/12/18 11:21:11;;;;;;;24.75;14.65;;;;;;;6.23;100.00;98199.97;4983160;28;20082;-45
2021/12/18 11:23:44;;;;;;;25.05;15.60;;;;;;;5.75;100.00;98201.38;4979892;28;20105;-47
2021/12/18 11:26:14;;;;;;;27.35;16.35;;;;;;;6.14;100.00;98187.31;4980313;28;20058;-49
2021/12/18 11:28:46;;;;;;;24.63;15.37;;;;;;;5.84;100.00;98182.56;4987675;28;20508;-49
2021/12/18 11:31:14;;;;;;;25.60;14.55;;;;;;;6.52;100.00;98184.56;4981449;28;20086;-48
2021/12/18 11:33:43;;;;;;;24.83;15.40;;;;;;;5.94;100.00;98181.25;4964931;28;20086;-50
2021/12/18 11:36:11;;;;;;;26.92;16.35;;;;;;;5.78;100.00;98180.28;4977075;28;20077;-45
2021/12/18 11:38:42;;;;;;;33.28;19.55;;;;;;;5.58;100.00;98183.81;4966999;28;20066;-49
2021/12/18 11:41:14;;;;;;;23.25;14.00;;;;;;;4.81;100.00;98178.53;4969916;28;20074;-45
2021/12/18 11:43:46;;;;;;;25.70;16.27;;;;;;;4.27;100.00;98175.63;4980940;28;20085;-47
2021/12/18 11:46:30;;;;;;;25.98;16.15;;;;;;;4.46;100.00;98169.63;4984568;28;20529;-45
2021/12/18 11:49:00;;;;;;;24.83;15.43;;;;;;;4.27;100.00;98169.56;4987508;28;20084;-47
2021/12/18 11:51:29;;;;;;;24.67;14.57;;;;;;;4.15;100.00;98175.25;4980762;28;20255;-45
2021/12/18 11:53:58;;;;;;;26.60;15.17;;;;;;;4.51;100.00;98175.50;4989023;28;20066;-46
2021/12/18 11:56:27;;;;;;;25.98;15.68;;;;;;;4.21;100.00;98172.41;4982086;28;20140;-44
2021/12/18 11:58:57;;;;;;;25.80;16.33;;;;;;;5.13;100.00;98171.06;4976096;28;20066;-50
2021/12/18 12:01:27;;;;;;;29.13;17.00;;;;;;;4.74;100.00;98167.50;4960505;28;20082;-48